Time;durP1;ratioP1;P1;durP2;ratioP2;P2;SDS_P1;SDS_P2;PMS_P1;PMS_P2;Temp;Humidity;BMP_temperature;BMP_pressure;BME280_temperature;BME280_humidity;BME280_pressure;Samples;Min_cycle;Max_cycle;Signal;HPM_P1;HPM_P2
2022/08/12 00:44:39;;;;;;;2.53;2.20;;;20.60;56.70;;;;;;6062572;23;20519;-74
2022/08/12 00:47:07;;;;;;;2.03;1.93;;;20.60;57.00;;;;;;6061927;23;20472;-74
2022/08/12 00:49:35;;;;;;;2.60;2.40;;;20.50;57.10;;;;;;6062562;23;20454;-74
2022/08/12 00:52:08;;;;;;;2.80;2.60;;;20.40;57.40;;;;;;6062691;23;20463;-75
2022/08/12 00:54:38;;;;;;;2.60;2.40;;;20.30;57.50;;;;;;6062272;23;20978;-74
2022/08/12 00:57:09;;;;;;;2.67;2.47;;;20.30;57.80;;;;;;6062306;23;20452;-74
2022/08/12 00:59:43;;;;;;;2.67;2.47;;;20.20;57.90;;;;;;6062481;23;20490;-74
2022/08/12 01:02:14;;;;;;;2.80;2.60;;;20.20;58.20;;;;;;6062726;23;20511;-74
2022/08/12 01:13:01;;;;;;;3.83;2.60;;;20.00;59.00;;;;;;6062546;23;20478;-74
2022/08/12 01:15:30;;;;;;;2.67;2.47;;;20.00;59.20;;;;;;6061933;23;20467;-74
2022/08/12 01:17:57;;;;;;;3.47;2.50;;;20.00;59.20;;;;;;6062050;23;20432;-74
2022/08/12 01:20:35;;;;;;;2.50;2.30;;;20.10;59.40;;;;;;6062874;23;20536;-74
2022/08/12 01:23:35;;;;;;;3.13;2.30;;;20.20;59.60;;;;;;6063603;23;20433;-74
2022/08/12 01:26:06;;;;;;;2.90;2.60;;;20.10;59.60;;;;;;6056008;23;20431;-74
2022/08/12 01:28:35;;;;;;;3.70;2.20;;;20.10;59.70;;;;;;6063383;23;20448;-74
2022/08/12 01:31:05;;;;;;;2.47;2.37;;;20.00;59.70;;;;;;6063226;23;20427;-74
2022/08/12 01:33:39;;;;;;;3.10;2.90;;;19.90;59.80;;;;;;6063259;23;20775;-74
2022/08/12 01:36:10;;;;;;;3.57;2.70;;;19.90;60.00;;;;;;6063101;23;20526;-74
2022/08/12 01:38:38;;;;;;;3.70;2.83;;;19.90;60.20;;;;;;6063343;23;20505;-74
2022/08/12 01:41:10;;;;;;;5.10;2.70;;;19.90;60.50;;;;;;6063056;23;20875;-74
2022/08/12 01:43:38;;;;;;;2.73;2.53;;;19.80;60.50;;;;;;6063679;23;20428;-74
2022/08/12 01:46:09;;;;;;;2.70;2.50;;;19.70;60.50;;;;;;6063137;23;20504;-74
2022/08/12 01:48:59;;;;;;;3.70;2.50;;;19.80;60.80;;;;;;6063573;23;20436;-74
2022/08/12 01:51:39;;;;;;;4.30;2.57;;;19.70;61.00;;;;;;6063371;23;20557;-74
2022/08/12 01:54:09;;;;;;;3.30;2.50;;;19.70;61.20;;;;;;6063415;23;20463;-74
2022/08/12 01:56:47;;;;;;;2.97;2.57;;;19.70;61.40;;;;;;6063269;23;20521;-74
2022/08/12 02:02:06;;;;;;;2.50;2.30;;;19.60;61.70;;;;;;6063088;23;20425;-74
2022/08/12 02:14:11;;;;;;;3.33;2.60;;;19.50;62.30;;;;;;6063417;23;20424;-74
2022/08/12 02:17:04;;;;;;;2.70;2.50;;;19.40;62.60;;;;;;6062771;23;20486;-74
2022/08/12 02:19:48;;;;;;;3.00;2.60;;;19.40;62.70;;;;;;6062933;23;20447;-75
2022/08/12 02:22:27;;;;;;;3.00;2.80;;;19.40;62.90;;;;;;6062924;23;20854;-75
2022/08/12 02:25:02;;;;;;;2.80;2.60;;;19.50;63.30;;;;;;6062824;23;20422;-74
2022/08/12 02:27:35;;;;;;;3.43;2.70;;;19.30;63.30;;;;;;6062828;23;20449;-74
2022/08/12 02:30:07;;;;;;;2.80;2.60;;;19.30;63.50;;;;;;6062858;23;20434;-74
2022/08/12 02:32:38;;;;;;;2.70;2.50;;;19.30;63.80;;;;;;6062601;23;20412;-75
2022/08/12 02:35:10;;;;;;;2.77;2.57;;;19.30;63.90;;;;;;6062933;23;20463;-74
2022/08/12 02:37:38;;;;;;;2.67;2.37;;;19.30;64.30;;;;;;6063789;23;20416;-74
2022/08/12 02:40:08;;;;;;;2.80;2.60;;;19.20;64.50;;;;;;6063182;23;20892;-74
2022/08/12 02:42:38;;;;;;;2.67;2.47;;;19.30;65.20;;;;;;6062765;23;20462;-74
2022/08/12 02:45:08;;;;;;;3.20;2.60;;;19.20;65.30;;;;;;6062828;23;20502;-74
2022/08/12 02:47:41;;;;;;;2.77;2.57;;;19.20;65.40;;;;;;6061888;23;20432;-75
2022/08/12 02:50:10;;;;;;;2.73;2.53;;;19.20;65.50;;;;;;6062069;23;20504;-75
2022/08/12 02:52:38;;;;;;;3.10;2.53;;;19.20;65.60;;;;;;6063150;23;20423;-73
2022/08/12 02:55:17;;;;;;;3.13;2.93;;;19.10;65.60;;;;;;6062663;23;20942;-75
2022/08/12 02:57:46;;;;;;;2.93;2.73;;;19.10;66.10;;;;;;6063024;23;20463;-74
2022/08/12 03:00:17;;;;;;;3.03;2.73;;;19.10;66.30;;;;;;6063103;23;20420;-74
2022/08/12 03:02:46;;;;;;;2.90;2.70;;;19.00;66.50;;;;;;6063223;23;20436;-73
2022/08/12 03:05:17;;;;;;;3.10;2.80;;;19.10;66.90;;;;;;6063312;23;20431;-73
2022/08/12 03:07:50;;;;;;;3.40;2.70;;;18.90;67.00;;;;;;6063324;23;20470;-75
2022/08/12 03:10:21;;;;;;;2.67;2.47;;;18.90;67.20;;;;;;6063221;23;20973;-75
2022/08/12 03:12:52;;;;;;;2.80;2.60;;;18.90;67.60;;;;;;6062912;23;20431;-74
2022/08/12 03:15:23;;;;;;;2.60;2.40;;;18.90;67.70;;;;;;6062578;23;20460;-74
2022/08/12 03:17:54;;;;;;;3.73;2.97;;;18.90;67.80;;;;;;6063546;23;20544;-74
2022/08/12 03:20:23;;;;;;;2.60;2.40;;;18.80;67.90;;;;;;6063335;23;20419;-74
2022/08/12 03:22:51;;;;;;;3.40;3.20;;;18.80;68.70;;;;;;6062960;23;20458;-74
2022/08/12 03:25:25;;;;;;;4.30;3.93;;;18.80;68.40;;;;;;6062726;23;20435;-74
2022/08/12 03:27:55;;;;;;;3.20;3.00;;;18.80;69.90;;;;;;6062765;23;20474;-74
2022/08/12 03:30:27;;;;;;;5.30;3.20;;;18.80;69.50;;;;;;6063336;23;20431;-74
2022/08/12 03:32:57;;;;;;;2.93;2.73;;;18.60;69.30;;;;;;6062930;23;20911;-74
2022/08/12 03:35:26;;;;;;;2.80;2.60;;;18.70;69.70;;;;;;6062414;23;20962;-75
2022/08/12 03:37:56;;;;;;;3.23;3.03;;;18.70;69.90;;;;;;6062674;23;20962;-74
2022/08/12 04:02:41;;;;;;;3.00;2.80;;;18.50;71.70;;;;;;6062989;23;20501;-74
2022/08/12 04:05:11;;;;;;;3.00;2.70;;;18.50;71.90;;;;;;6062778;23;20427;-73
2022/08/12 04:07:40;;;;;;;3.10;2.80;;;18.50;72.00;;;;;;6062740;23;20522;-75
2022/08/12 04:10:07;;;;;;;2.90;2.70;;;18.50;72.30;;;;;;6063363;23;20426;-74
2022/08/12 04:15:23;;;;;;;2.80;2.60;;;18.50;72.70;;;;;;6062679;23;20590;-75
2022/08/12 04:17:52;;;;;;;2.50;2.30;;;18.40;72.90;;;;;;6063221;23;20439;-75
2022/08/12 04:20:21;;;;;;;2.97;2.67;;;18.50;73.00;;;;;;6063926;23;20510;-74
2022/08/12 04:22:50;;;;;;;3.77;3.27;;;18.40;73.10;;;;;;6065354;23;20957;-74
2022/08/12 04:25:17;;;;;;;2.97;2.77;;;18.40;73.40;;;;;;6063857;23;20431;-74
2022/08/12 04:27:45;;;;;;;3.10;2.90;;;18.40;73.70;;;;;;6063122;23;20814;-75
2022/08/12 04:30:13;;;;;;;3.17;2.97;;;18.40;73.40;;;;;;6063689;23;20427;-74
2022/08/12 04:32:40;;;;;;;2.90;2.70;;;18.60;73.90;;;;;;6063229;23;20415;-74
2022/08/12 04:35:10;;;;;;;3.10;2.90;;;18.40;74.30;;;;;;6062430;23;20487;-74
2022/08/12 04:37:37;;;;;;;2.83;2.60;;;18.40;74.60;;;;;;6062379;23;20455;-74
2022/08/12 04:40:05;;;;;;;2.73;2.50;;;18.40;75.00;;;;;;6062711;23;20494;-75
2022/08/12 04:42:33;;;;;;;3.60;2.70;;;18.40;75.80;;;;;;6062326;23;20429;-75
2022/08/12 04:45:00;;;;;;;4.07;3.43;;;18.40;75.70;;;;;;6062423;23;20434;-74
2022/08/12 04:47:27;;;;;;;5.57;2.80;;;18.40;75.70;;;;;;6062408;23;20439;-74
2022/08/12 04:49:54;;;;;;;3.07;2.87;;;18.40;76.00;;;;;;6062465;23;21008;-74
2022/08/12 04:52:23;;;;;;;3.00;2.80;;;18.40;75.10;;;;;;6062740;23;20427;-74
2022/08/12 04:54:51;;;;;;;4.20;3.10;;;18.40;74.60;;;;;;6062696;23;20433;-74
2022/08/12 04:57:18;;;;;;;3.33;3.03;;;18.40;75.10;;;;;;6064033;23;20462;-74
2022/08/12 04:59:45;;;;;;;3.40;2.90;;;18.30;75.40;;;;;;6063688;23;20413;-74
2022/08/12 05:02:12;;;;;;;2.97;2.77;;;18.40;75.50;;;;;;6063771;23;20748;-74
2022/08/12 05:04:41;;;;;;;3.20;2.90;;;18.40;76.00;;;;;;6063497;23;20526;-75
2022/08/12 05:07:08;;;;;;;3.00;2.70;;;18.40;76.50;;;;;;6063340;23;20427;-75
2022/08/12 05:09:37;;;;;;;4.87;2.60;;;18.40;76.90;;;;;;6063869;23;20538;-75
2022/08/12 05:12:05;;;;;;;3.33;2.67;;;18.40;76.50;;;;;;6063929;23;20439;-76
2022/08/12 05:14:32;;;;;;;3.00;2.80;;;18.50;76.40;;;;;;6063414;23;20806;-75
2022/08/12 05:17:00;;;;;;;3.00;2.80;;;18.60;76.80;;;;;;6063171;23;20473;-75
2022/08/12 05:19:28;;;;;;;3.27;2.97;;;18.60;76.50;;;;;;6063663;23;20466;-72
2022/08/12 05:21:55;;;;;;;3.20;2.90;;;18.70;76.20;;;;;;6063250;23;20416;-74
2022/08/12 05:24:22;;;;;;;4.30;2.80;;;18.70;76.20;;;;;;6063530;23;20938;-75
2022/08/12 05:26:51;;;;;;;3.40;3.13;;;18.80;76.20;;;;;;6063210;23;20593;-74
2022/08/12 05:29:18;;;;;;;3.50;3.07;;;18.80;76.00;;;;;;6063547;23;20442;-74
2022/08/12 05:31:48;;;;;;;7.40;4.77;;;18.90;75.60;;;;;;6063413;23;20510;-74
2022/08/12 05:34:15;;;;;;;6.53;4.27;;;18.90;76.10;;;;;;6063134;23;20457;-74
2022/08/12 05:36:43;;;;;;;3.60;3.27;;;19.00;75.70;;;;;;6063461;23;20511;-74
2022/08/12 05:39:09;;;;;;;5.40;3.57;;;19.00;75.80;;;;;;6063599;23;20459;-74
2022/08/12 05:41:37;;;;;;;3.37;3.07;;;19.10;75.50;;;;;;6063418;23;20424;-74
2022/08/12 05:44:06;;;;;;;2.90;2.70;;;19.20;75.20;;;;;;6063348;23;20478;-75
2022/08/12 05:46:35;;;;;;;4.17;3.10;;;19.30;75.30;;;;;;6063190;23;20451;-75
2022/08/12 05:49:05;;;;;;;3.20;3.00;;;19.40;75.00;;;;;;6063407;23;20482;-75
2022/08/12 05:51:34;;;;;;;3.00;2.80;;;19.40;74.60;;;;;;6063695;23;20439;-75
2022/08/12 05:54:02;;;;;;;4.07;3.13;;;19.50;74.60;;;;;;6063361;23;20415;-74
2022/08/12 05:56:31;;;;;;;3.20;3.00;;;19.60;74.10;;;;;;6062533;23;20460;-75
2022/08/12 05:59:00;;;;;;;3.40;3.20;;;19.60;73.70;;;;;;6063340;23;20491;-75
2022/08/12 06:01:30;;;;;;;2.80;2.60;;;19.70;73.60;;;;;;6063010;23;20486;-74
2022/08/12 06:03:57;;;;;;;3.37;3.07;;;19.80;73.40;;;;;;6063657;23;20434;-75
2022/08/12 06:06:24;;;;;;;4.27;2.97;;;19.90;73.40;;;;;;6062869;23;20424;-75
2022/08/12 06:08:53;;;;;;;3.00;2.80;;;19.80;73.10;;;;;;6063276;23;20466;-75
2022/08/12 06:11:22;;;;;;;3.40;3.10;;;19.90;73.00;;;;;;6063069;23;20454;-75
2022/08/12 06:13:49;;;;;;;3.30;3.10;;;20.10;72.50;;;;;;6063350;23;20423;-74
2022/08/12 06:16:21;;;;;;;3.07;2.73;;;20.10;72.50;;;;;;6062344;23;20542;-75
2022/08/12 06:18:50;;;;;;;3.50;3.20;;;20.20;72.30;;;;;;6063127;23;20447;-75
2022/08/12 06:21:20;;;;;;;3.33;3.03;;;20.30;72.10;;;;;;6062980;23;20421;-75
2022/08/12 06:23:48;;;;;;;3.00;2.70;;;20.40;71.40;;;;;;6063047;23;20424;-75
2022/08/12 06:26:17;;;;;;;3.10;2.80;;;20.50;71.80;;;;;;6062560;23;20435;-75
2022/08/12 06:28:47;;;;;;;3.30;2.93;;;20.50;71.70;;;;;;6062917;23;21007;-75
2022/08/12 06:31:15;;;;;;;3.20;3.00;;;20.60;70.80;;;;;;6063222;23;20428;-75
2022/08/12 06:33:43;;;;;;;3.23;2.90;;;20.70;71.20;;;;;;6062975;23;20431;-75
2022/08/12 06:36:13;;;;;;;3.63;3.27;;;20.70;70.90;;;;;;6062312;23;20523;-75
2022/08/12 06:38:41;;;;;;;2.97;2.77;;;20.80;70.00;;;;;;6062825;23;20513;-76
2022/08/12 06:43:55;;;;;;;3.10;2.67;;;20.90;69.80;;;;;;6063302;23;20457;-75
2022/08/12 06:46:24;;;;;;;3.73;3.10;;;21.00;69.60;;;;;;6062853;23;20469;-75
2022/08/12 06:48:56;;;;;;;3.20;2.60;;;21.20;69.20;;;;;;6062516;23;20440;-75
2022/08/12 06:51:25;;;;;;;3.10;2.60;;;21.00;69.70;;;;;;6063092;23;20910;-75
2022/08/12 06:53:52;;;;;;;3.27;2.97;;;21.20;70.00;;;;;;6063152;23;20446;-75
2022/08/12 06:56:19;;;;;;;3.20;2.90;;;21.20;69.10;;;;;;6062280;23;20547;-75
2022/08/12 06:58:47;;;;;;;4.23;3.13;;;21.40;69.30;;;;;;6062799;23;20858;-75
2022/08/12 07:01:16;;;;;;;4.77;2.80;;;21.60;69.20;;;;;;6063168;23;20424;-75
2022/08/12 07:03:43;;;;;;;3.40;3.10;;;21.80;69.10;;;;;;6062376;23;20910;-75
2022/08/12 07:06:12;;;;;;;3.53;2.73;;;22.10;68.50;;;;;;6062498;23;20524;-75
2022/08/12 07:08:42;;;;;;;3.90;2.90;;;22.30;67.60;;;;;;6062911;23;20462;-76
2022/08/12 07:11:12;;;;;;;2.90;2.70;;;22.40;66.90;;;;;;6063074;23;20526;-75
2022/08/12 07:13:42;;;;;;;9.33;3.23;;;22.40;66.90;;;;;;6062996;23;20464;-75
2022/08/12 07:16:10;;;;;;;4.10;2.97;;;22.40;67.30;;;;;;6062145;23;20837;-75
2022/08/12 07:18:38;;;;;;;3.00;2.70;;;22.50;65.90;;;;;;6062292;23;20451;-75
2022/08/12 07:21:06;;;;;;;3.80;2.70;;;22.60;66.60;;;;;;6062848;23;20791;-76
2022/08/12 07:23:38;;;;;;;2.50;2.30;;;22.90;66.50;;;;;;6062869;23;20420;-76
2022/08/12 07:26:09;;;;;;;2.93;2.60;;;23.30;65.70;;;;;;6062273;23;20522;-75
2022/08/12 07:28:40;;;;;;;3.60;2.80;;;23.50;64.10;;;;;;6062589;23;20502;-76
2022/08/12 07:31:08;;;;;;;2.93;2.60;;;23.60;63.60;;;;;;6062538;23;20413;-75
2022/08/12 07:33:38;;;;;;;3.03;2.70;;;23.80;62.80;;;;;;6062685;23;20420;-75
2022/08/12 07:36:07;;;;;;;2.60;2.40;;;23.90;63.10;;;;;;6062698;23;20493;-75
2022/08/12 07:38:37;;;;;;;2.80;2.60;;;24.00;63.20;;;;;;6062444;23;20525;-75
2022/08/12 07:41:10;;;;;;;2.93;2.73;;;24.40;63.20;;;;;;6062901;23;20435;-75
2022/08/12 07:43:39;;;;;;;2.40;2.30;;;24.70;62.00;;;;;;6062893;23;20455;-75
2022/08/12 07:46:10;;;;;;;3.37;2.70;;;25.10;61.70;;;;;;6062745;23;20514;-76
2022/08/12 07:48:40;;;;;;;3.33;2.80;;;25.30;59.90;;;;;;6062803;23;20486;-77
2022/08/12 07:51:08;;;;;;;2.60;2.40;;;25.40;59.70;;;;;;6062945;23;20507;-75
2022/08/12 07:53:37;;;;;;;2.93;2.63;;;25.70;59.20;;;;;;6062358;23;20440;-76
2022/08/12 07:56:08;;;;;;;2.40;2.20;;;26.10;58.30;;;;;;6062300;23;20509;-75
2022/08/12 07:58:38;;;;;;;3.07;2.50;;;26.20;57.40;;;;;;6062582;23;20965;-76
2022/08/12 08:01:05;;;;;;;2.50;2.30;;;26.40;57.80;;;;;;6062447;23;20428;-76
2022/08/12 08:03:33;;;;;;;2.77;2.57;;;26.70;57.00;;;;;;6062547;23;20790;-76
2022/08/12 08:06:00;;;;;;;3.67;2.60;;;26.80;56.00;;;;;;6062410;23;20423;-75
2022/08/12 08:08:29;;;;;;;3.50;2.67;;;26.90;55.90;;;;;;6062601;23;20475;-75
2022/08/12 08:13:40;;;;;;;2.70;2.50;;;26.90;55.50;;;;;;6061373;23;20424;-76
2022/08/12 08:16:07;;;;;;;2.83;2.23;;;27.30;55.20;;;;;;6062122;23;20479;-76
2022/08/12 08:18:34;;;;;;;2.93;2.50;;;27.70;54.50;;;;;;6062786;23;20436;-76
2022/08/12 08:21:01;;;;;;;2.80;2.60;;;27.60;54.00;;;;;;6062428;23;20458;-75
2022/08/12 08:26:10;;;;;;;2.50;2.30;;;28.10;54.20;;;;;;6067449;23;20915;-75
2022/08/12 08:28:37;;;;;;;2.50;2.30;;;28.60;53.70;;;;;;6067810;23;21003;-74
2022/08/12 08:31:05;;;;;;;2.50;2.10;;;29.20;52.30;;;;;;6069146;23;20965;-75
2022/08/12 08:33:32;;;;;;;2.50;2.30;;;29.80;49.40;;;;;;6066498;23;20427;-75
2022/08/12 08:36:00;;;;;;;3.50;2.80;;;30.00;49.10;;;;;;6062640;23;20431;-76
2022/08/12 08:38:28;;;;;;;2.23;2.03;;;30.00;49.40;;;;;;6062255;23;20838;-76
2022/08/12 08:43:40;;;;;;;2.20;2.00;;;29.20;49.20;;;;;;6062121;23;20455;-76
2022/08/12 08:46:09;;;;;;;2.90;2.10;;;29.40;49.10;;;;;;6061988;23;20424;-76
2022/08/12 08:48:36;;;;;;;2.43;2.23;;;29.50;49.20;;;;;;6062528;23;20447;-77
2022/08/12 08:51:04;;;;;;;2.60;2.37;;;30.00;49.00;;;;;;6062331;23;20463;-76
2022/08/12 08:53:31;;;;;;;2.27;2.10;;;30.30;47.40;;;;;;6062015;23;20725;-76
2022/08/12 08:55:58;;;;;;;2.00;1.80;;;30.40;46.80;;;;;;6061781;23;20768;-76
2022/08/12 08:58:25;;;;;;;2.27;2.17;;;30.20;47.10;;;;;;6062317;23;20443;-76
2022/08/12 09:00:55;;;;;;;2.10;2.00;;;30.20;46.70;;;;;;6062765;23;20521;-76
2022/08/12 09:03:23;;;;;;;2.80;2.37;;;30.30;47.60;;;;;;6062215;23;20503;-76
2022/08/12 09:05:50;;;;;;;2.30;2.10;;;30.70;47.40;;;;;;6061616;23;20426;-76
2022/08/12 09:08:18;;;;;;;2.30;2.20;;;31.10;46.70;;;;;;6062295;23;20458;-76
2022/08/12 09:10:45;;;;;;;2.53;2.33;;;31.10;46.40;;;;;;6062072;23;20424;-77
2022/08/12 09:13:27;;;;;;;1.70;1.60;;;31.50;46.40;;;;;;6061810;23;20463;-76
2022/08/12 09:15:54;;;;;;;2.03;1.83;;;31.90;45.20;;;;;;6062117;23;20479;-76
2022/08/12 09:18:23;;;;;;;2.53;1.90;;;32.30;43.40;;;;;;6061816;23;20455;-76
2022/08/12 09:20:50;;;;;;;3.20;2.10;;;32.20;43.50;;;;;;6062096;23;20803;-76
2022/08/12 09:23:18;;;;;;;2.37;2.17;;;32.40;42.80;;;;;;6062439;23;20506;-76
2022/08/12 09:25:47;;;;;;;2.83;1.97;;;32.10;43.40;;;;;;6061350;23;20431;-76
2022/08/12 09:28:14;;;;;;;2.30;2.10;;;31.70;43.60;;;;;;6062019;23;20954;-76
2022/08/12 09:30:44;;;;;;;2.50;2.03;;;31.20;43.40;;;;;;6062074;23;20832;-76
2022/08/12 09:33:12;;;;;;;2.67;2.47;;;30.80;43.80;;;;;;6061763;23;20472;-76
2022/08/12 09:35:43;;;;;;;2.97;2.10;;;30.30;44.20;;;;;;6061568;23;20511;-75
2022/08/12 09:38:14;;;;;;;2.30;1.90;;;30.20;44.80;;;;;;6061520;23;20486;-76
2022/08/12 09:40:42;;;;;;;2.53;1.93;;;30.30;45.00;;;;;;6063176;23;20470;-76
2022/08/12 09:45:53;;;;;;;1.93;1.80;;;31.00;45.50;;;;;;6063050;23;20423;-76
2022/08/12 09:48:20;;;;;;;2.30;2.10;;;30.90;44.40;;;;;;6063213;23;20443;-76
2022/08/12 09:50:49;;;;;;;3.73;1.87;;;30.80;43.20;;;;;;6063162;23;20423;-76
2022/08/12 09:53:22;;;;;;;4.13;2.10;;;30.70;43.80;;;;;;6063238;23;20427;-76
2022/08/12 09:55:52;;;;;;;2.30;2.10;;;30.10;44.10;;;;;;6063017;23;20514;-75
2022/08/12 09:58:27;;;;;;;1.90;1.80;;;30.00;45.00;;;;;;6063295;23;20506;-76
2022/08/12 10:00:56;;;;;;;1.73;1.50;;;30.40;44.30;;;;;;6063285;23;20501;-76
2022/08/12 10:03:25;;;;;;;1.90;1.80;;;30.90;44.40;;;;;;6062933;23;20423;-76
2022/08/12 10:05:55;;;;;;;1.70;1.53;;;31.20;43.10;;;;;;6062841;23;20423;-76
2022/08/12 10:08:26;;;;;;;1.90;1.80;;;31.30;42.50;;;;;;6063108;23;20530;-76
2022/08/12 10:13:45;;;;;;;2.00;1.90;;;31.20;42.10;;;;;;5957192;23;20434;-75
2022/08/12 10:16:16;;;;;;;3.10;1.90;;;30.90;42.50;;;;;;6062711;23;20466;-76
2022/08/12 10:18:44;;;;;;;2.13;2.03;;;30.90;42.50;;;;;;6063282;23;20423;-76
2022/08/12 10:21:15;;;;;;;2.63;2.00;;;30.50;43.30;;;;;;6063220;23;20431;-76
2022/08/12 10:23:44;;;;;;;2.10;2.00;;;30.60;43.80;;;;;;6063306;23;20435;-75
2022/08/12 10:31:38;;;;;;;2.90;2.23;;;30.70;43.10;;;;;;6044592;23;20435;-76
2022/08/12 10:34:08;;;;;;;4.77;2.07;;;31.00;43.20;;;;;;6062744;23;20539;-76
2022/08/12 10:36:38;;;;;;;2.27;2.07;;;31.00;41.90;;;;;;6062460;23;20447;-76
2022/08/12 10:39:06;;;;;;;2.20;1.70;;;31.00;41.20;;;;;;6063307;23;20506;-76
2022/08/12 10:44:19;;;;;;;2.03;1.70;;;31.00;41.80;;;;;;6062801;23;20424;-76
2022/08/12 10:46:46;;;;;;;2.30;2.00;;;31.00;41.50;;;;;;6062792;23;20868;-76
2022/08/12 10:49:13;;;;;;;2.30;2.10;;;30.60;42.00;;;;;;6062894;23;20455;-76
2022/08/12 10:51:42;;;;;;;1.87;1.67;;;30.50;41.70;;;;;;6062945;23;20419;-76
2022/08/12 10:54:11;;;;;;;2.23;2.00;;;30.70;41.40;;;;;;6063396;23;20408;-76
2022/08/12 10:56:40;;;;;;;2.10;1.90;;;30.90;41.80;;;;;;6062135;23;20887;-76
2022/08/12 10:59:08;;;;;;;2.40;2.10;;;30.90;41.00;;;;;;6062898;23;20427;-76
2022/08/12 11:01:35;;;;;;;1.70;1.60;;;31.00;40.70;;;;;;6062557;23;20423;-76
2022/08/12 11:04:04;;;;;;;1.70;1.60;;;31.20;40.50;;;;;;6063070;23;20462;-76
2022/08/12 11:06:31;;;;;;;2.63;1.50;;;31.60;40.30;;;;;;6062457;23;20517;-76
2022/08/12 11:08:59;;;;;;;3.00;1.60;;;31.70;40.50;;;;;;6063249;23;20428;-73
2022/08/12 11:11:26;;;;;;;2.80;2.10;;;31.80;40.40;;;;;;6062482;23;20834;-74
2022/08/12 11:13:53;;;;;;;2.57;2.03;;;32.20;40.70;;;;;;6062989;23;20767;-73
2022/08/12 11:16:20;;;;;;;2.23;1.80;;;32.60;39.90;;;;;;6062188;23;20454;-74
2022/08/12 11:18:47;;;;;;;2.30;1.77;;;33.20;39.10;;;;;;6062936;23;20550;-74
2022/08/12 11:21:15;;;;;;;2.43;1.83;;;33.60;39.00;;;;;;6063061;23;20507;-77
2022/08/12 11:23:41;;;;;;;2.10;1.90;;;34.10;38.10;;;;;;6062563;23;20910;-76
2022/08/12 11:26:10;;;;;;;2.00;1.83;;;34.50;38.10;;;;;;6062527;23;20439;-77
2022/08/12 11:28:37;;;;;;;1.90;1.80;;;35.00;38.00;;;;;;6062427;23;20784;-76
2022/08/12 11:31:05;;;;;;;1.80;1.70;;;35.20;36.80;;;;;;6063185;23;20507;-76
2022/08/12 11:33:33;;;;;;;1.73;1.63;;;34.90;37.90;;;;;;6063058;23;20469;-76
2022/08/12 11:36:07;;;;;;;2.20;1.70;;;34.00;37.40;;;;;;6062247;23;20420;-76
2022/08/12 11:38:34;;;;;;;1.70;1.60;;;34.10;37.60;;;;;;6062700;23;20858;-76
2022/08/12 11:41:02;;;;;;;2.40;1.60;;;33.60;37.90;;;;;;6062680;23;20539;-75
2022/08/12 11:43:31;;;;;;;2.10;1.90;;;33.20;38.80;;;;;;6063062;23;20427;-76
2022/08/12 11:45:58;;;;;;;2.70;1.53;;;33.20;38.60;;;;;;6062298;23;20435;-76
2022/08/12 11:48:26;;;;;;;1.70;1.60;;;33.70;38.20;;;;;;6062840;23;20463;-76
2022/08/12 11:50:53;;;;;;;2.07;1.70;;;34.00;38.00;;;;;;6062666;23;20430;-76
2022/08/12 11:53:20;;;;;;;3.50;1.97;;;33.50;37.80;;;;;;6062522;23;20851;-76
2022/08/12 11:55:47;;;;;;;2.50;2.30;;;32.50;38.90;;;;;;6061855;23;20463;-75
2022/08/12 11:58:14;;;;;;;2.63;1.80;;;32.10;39.20;;;;;;6062719;23;20491;-76
2022/08/12 12:00:43;;;;;;;2.10;1.77;;;32.40;39.00;;;;;;6063025;23;20512;-76
2022/08/12 12:03:10;;;;;;;1.60;1.50;;;32.70;38.20;;;;;;6062542;23;20949;-76
2022/08/12 12:05:37;;;;;;;1.80;1.70;;;33.10;38.20;;;;;;6062523;23;20415;-76
2022/08/12 12:08:04;;;;;;;3.00;1.90;;;33.40;38.50;;;;;;6062265;23;20444;-76
2022/08/12 12:10:31;;;;;;;2.07;1.80;;;33.30;38.40;;;;;;6062840;23;20733;-76
2022/08/12 12:12:58;;;;;;;1.90;1.80;;;32.70;39.00;;;;;;6062506;23;20439;-75
2022/08/12 12:15:25;;;;;;;3.37;2.10;;;31.90;39.60;;;;;;6062495;23;20478;-76
2022/08/12 12:17:54;;;;;;;1.90;1.70;;;31.70;40.90;;;;;;6062556;23;20471;-77
2022/08/12 12:20:21;;;;;;;2.20;1.70;;;32.30;41.10;;;;;;6062243;23;20522;-76
2022/08/12 12:22:48;;;;;;;1.80;1.70;;;33.10;39.30;;;;;;6062123;23;20450;-75
2022/08/12 12:25:15;;;;;;;2.13;1.80;;;33.90;38.60;;;;;;6062322;23;20507;-76
2022/08/12 12:27:50;;;;;;;1.93;1.73;;;34.80;38.10;;;;;;6061975;23;20443;-74
2022/08/12 12:30:17;;;;;;;2.30;1.73;;;35.50;36.80;;;;;;6062364;23;20454;-73
2022/08/12 12:32:44;;;;;;;3.50;1.87;;;35.60;37.30;;;;;;6062353;23;20432;-74
2022/08/12 12:35:13;;;;;;;1.60;1.50;;;35.90;36.90;;;;;;6061885;23;20439;-73
2022/08/12 12:37:54;;;;;;;1.80;1.70;;;35.70;36.60;;;;;;6062405;23;20467;-73
2022/08/12 12:40:22;;;;;;;1.90;1.80;;;35.00;37.00;;;;;;6062778;23;20423;-75
2022/08/12 12:42:49;;;;;;;2.50;2.00;;;34.30;37.40;;;;;;6063194;23;20431;-76
2022/08/12 12:45:16;;;;;;;2.00;1.80;;;33.80;37.70;;;;;;6063024;23;20427;-75
2022/08/12 12:47:55;;;;;;;1.90;1.80;;;33.10;38.60;;;;;;6062888;23;20485;-76
2022/08/12 12:50:25;;;;;;;1.93;1.30;;;32.90;39.10;;;;;;6062786;23;20470;-76
2022/08/12 12:52:52;;;;;;;2.80;1.60;;;33.20;37.90;;;;;;6062360;23;20470;-76
2022/08/12 12:55:20;;;;;;;1.83;1.73;;;33.40;37.70;;;;;;6062066;23;20442;-76
2022/08/12 12:57:49;;;;;;;3.50;2.10;;;34.00;37.60;;;;;;6062122;23;20510;-76
2022/08/12 13:00:17;;;;;;;2.70;1.97;;;34.80;37.60;;;;;;6062252;23;20952;-75
2022/08/12 13:02:51;;;;;;;3.70;1.97;;;35.60;36.90;;;;;;6061955;23;20763;-76
2022/08/12 13:05:25;;;;;;;2.03;1.70;;;35.70;36.10;;;;;;6062028;23;20502;-76
2022/08/12 13:07:53;;;;;;;2.10;1.70;;;34.90;36.30;;;;;;6062221;23;20477;-76
2022/08/12 13:10:20;;;;;;;2.13;1.70;;;34.40;36.90;;;;;;6062146;23;20432;-76
2022/08/12 13:12:48;;;;;;;2.70;1.80;;;34.30;38.00;;;;;;6062010;23;20463;-76
2022/08/12 13:15:16;;;;;;;2.00;1.80;;;34.40;37.20;;;;;;6062574;23;20430;-76
2022/08/12 13:17:46;;;;;;;3.00;1.70;;;34.40;37.20;;;;;;6063466;23;20597;-76
2022/08/12 13:20:15;;;;;;;1.90;1.77;;;34.20;37.20;;;;;;6063706;23;20423;-76
2022/08/12 13:22:43;;;;;;;2.47;2.00;;;33.40;37.50;;;;;;6063230;23;20435;-76
2022/08/12 13:25:12;;;;;;;3.30;2.10;;;32.70;38.40;;;;;;6062946;23;20455;-76
2022/08/12 13:27:44;;;;;;;2.17;1.97;;;32.00;39.00;;;;;;6063361;23;20534;-76
2022/08/12 13:30:14;;;;;;;1.87;1.60;;;31.70;39.40;;;;;;6063628;23;20431;-76
2022/08/12 13:32:44;;;;;;;2.50;1.70;;;32.00;39.20;;;;;;6063509;23;20432;-76
2022/08/12 13:35:15;;;;;;;1.97;1.77;;;32.60;38.80;;;;;;6063114;23;20419;-76
2022/08/12 13:37:47;;;;;;;1.80;1.70;;;32.90;39.10;;;;;;6063105;23;20459;-76
2022/08/12 13:40:14;;;;;;;2.23;1.87;;;33.70;38.20;;;;;;6063657;23;20423;-76
2022/08/12 13:42:43;;;;;;;1.73;1.60;;;34.10;37.30;;;;;;6063338;23;20522;-76
2022/08/12 13:45:12;;;;;;;2.00;1.80;;;34.00;38.30;;;;;;6063129;23;20427;-76
2022/08/12 13:47:55;;;;;;;3.10;1.90;;;33.60;37.70;;;;;;6063229;23;20498;-76
2022/08/12 13:50:24;;;;;;;1.93;1.83;;;33.20;37.80;;;;;;6063324;23;20427;-76
2022/08/12 13:52:53;;;;;;;1.90;1.77;;;32.90;37.80;;;;;;6063375;23;21097;-76
2022/08/12 13:55:25;;;;;;;1.93;1.50;;;32.70;38.70;;;;;;6063024;23;20839;-76
2022/08/12 13:57:53;;;;;;;3.53;1.50;;;33.10;37.30;;;;;;6063344;23;20463;-76
2022/08/12 14:00:21;;;;;;;1.93;1.73;;;33.90;37.10;;;;;;6063719;23;20461;-76
2022/08/12 14:02:48;;;;;;;2.17;1.60;;;35.20;36.60;;;;;;6063518;23;20435;-76
2022/08/12 14:05:16;;;;;;;1.80;1.60;;;36.40;36.20;;;;;;6063383;23;20431;-76
2022/08/12 14:07:58;;;;;;;2.40;1.70;;;37.60;34.60;;;;;;6063253;23;20439;-76
2022/08/12 14:10:37;;;;;;;2.47;1.60;;;38.30;33.20;;;;;;6063679;23;20538;-76
2022/08/12 14:13:06;;;;;;;2.90;1.80;;;37.50;34.70;;;;;;6063233;23;20486;-76
2022/08/12 14:15:34;;;;;;;2.13;1.90;;;37.00;34.30;;;;;;6062459;23;20862;-75
2022/08/12 14:18:10;;;;;;;1.97;1.50;;;35.60;35.00;;;;;;6063361;23;20466;-76
2022/08/12 14:20:37;;;;;;;1.80;1.70;;;34.10;36.00;;;;;;6063585;23;20498;-76
2022/08/12 14:23:07;;;;;;;2.43;1.50;;;33.60;36.40;;;;;;6063471;23;20419;-73
2022/08/12 14:25:34;;;;;;;1.60;1.50;;;33.80;36.00;;;;;;6062576;23;20486;-75
2022/08/12 14:28:10;;;;;;;1.50;1.40;;;34.10;36.00;;;;;;6062912;23;20434;-76
2022/08/12 14:30:52;;;;;;;1.83;1.50;;;34.70;35.70;;;;;;6063519;23;20837;-76
2022/08/12 14:33:20;;;;;;;1.80;1.70;;;35.80;35.20;;;;;;6063274;23;20427;-76
2022/08/12 14:35:48;;;;;;;1.73;1.60;;;36.60;34.30;;;;;;6062970;23;20443;-76
2022/08/12 14:38:20;;;;;;;3.20;1.90;;;36.80;34.70;;;;;;6062671;23;20505;-75
2022/08/12 14:40:49;;;;;;;1.60;1.50;;;37.50;34.30;;;;;;6063610;23;20458;-76
2022/08/12 14:43:16;;;;;;;1.60;1.50;;;38.00;34.00;;;;;;6063244;23;20434;-76
2022/08/12 14:45:43;;;;;;;1.97;1.70;;;38.60;33.10;;;;;;6062853;23;20482;-76
2022/08/12 14:48:11;;;;;;;2.30;1.63;;;38.30;32.90;;;;;;6063127;23;20930;-75
2022/08/12 14:50:38;;;;;;;1.83;1.70;;;37.60;33.60;;;;;;6063078;23;20443;-75
2022/08/12 14:53:09;;;;;;;1.90;1.70;;;36.90;33.80;;;;;;6063162;23;20424;-75